sensor_id;sensor_type;location;lat;lon;timestamp;P1;durP1;ratioP1;P2;durP2;ratioP2
37877;SDS011;23715;53.652;8.516;2023-03-01T00:00:22;16.77;;;13.88;;
37877;SDS011;23715;53.652;8.516;2023-03-01T00:05:24;18.95;;;15.20;;
37877;SDS011;23715;53.652;8.516;2023-03-01T00:10:26;20.72;;;15.10;;
37877;SDS011;23715;53.652;8.516;2023-03-01T00:15:26;19.80;;;15.70;;
37877;SDS011;23715;53.652;8.516;2023-03-01T00:20:26;49.80;;;27.82;;
37877;SDS011;23715;53.652;8.516;2023-03-01T00:25:27;56.65;;;32.30;;
37877;SDS011;23715;53.652;8.516;2023-03-01T00:30:29;48.25;;;33.90;;
37877;SDS011;23715;53.652;8.516;2023-03-01T00:35:29;63.35;;;38.30;;
37877;SDS011;23715;53.652;8.516;2023-03-01T00:40:32;51.73;;;34.95;;
37877;SDS011;23715;53.652;8.516;2023-03-01T00:45:33;47.67;;;31.35;;
37877;SDS011;23715;53.652;8.516;2023-03-01T00:50:36;41.70;;;30.77;;
37877;SDS011;23715;53.652;8.516;2023-03-01T00:55:37;47.30;;;31.02;;
37877;SDS011;23715;53.652;8.516;2023-03-01T01:05:36;50.23;;;30.95;;
37877;SDS011;23715;53.652;8.516;2023-03-01T01:10:37;62.48;;;32.25;;
37877;SDS011;23715;53.652;8.516;2023-03-01T01:15:38;72.25;;;38.88;;
37877;SDS011;23715;53.652;8.516;2023-03-01T01:20:39;105.10;;;43.83;;
37877;SDS011;23715;53.652;8.516;2023-03-01T01:25:39;78.37;;;41.60;;
37877;SDS011;23715;53.652;8.516;2023-03-01T01:30:39;80.53;;;39.45;;
37877;SDS011;23715;53.652;8.516;2023-03-01T01:35:41;58.13;;;36.03;;
37877;SDS011;23715;53.652;8.516;2023-03-01T01:40:43;45.48;;;31.00;;
37877;SDS011;23715;53.652;8.516;2023-03-01T01:45:44;45.30;;;31.65;;
37877;SDS011;23715;53.652;8.516;2023-03-01T01:50:44;49.42;;;31.27;;
37877;SDS011;23715;53.652;8.516;2023-03-01T01:55:48;82.47;;;36.70;;
37877;SDS011;23715;53.652;8.516;2023-03-01T02:00:50;68.25;;;35.90;;
37877;SDS011;23715;53.652;8.516;2023-03-01T02:05:52;75.57;;;33.65;;
37877;SDS011;23715;53.652;8.516;2023-03-01T02:10:59;53.08;;;31.27;;
37877;SDS011;23715;53.652;8.516;2023-03-01T02:16:10;47.00;;;30.52;;
37877;SDS011;23715;53.652;8.516;2023-03-01T02:26:50;74.70;;;30.02;;
37877;SDS011;23715;53.652;8.516;2023-03-01T02:31:53;77.53;;;31.87;;
37877;SDS011;23715;53.652;8.516;2023-03-01T02:37:00;78.02;;;30.85;;
37877;SDS011;23715;53.652;8.516;2023-03-01T02:42:02;78.60;;;30.50;;
37877;SDS011;23715;53.652;8.516;2023-03-01T02:47:05;46.83;;;27.58;;
37877;SDS011;23715;53.652;8.516;2023-03-01T02:57:08;57.53;;;28.95;;
37877;SDS011;23715;53.652;8.516;2023-03-01T03:02:24;122.75;;;28.50;;
37877;SDS011;23715;53.652;8.516;2023-03-01T03:07:44;78.42;;;27.70;;
37877;SDS011;23715;53.652;8.516;2023-03-01T03:12:50;134.22;;;32.63;;
37877;SDS011;23715;53.652;8.516;2023-03-01T03:17:52;137.07;;;34.10;;
37877;SDS011;23715;53.652;8.516;2023-03-01T03:22:54;157.90;;;40.15;;
37877;SDS011;23715;53.652;8.516;2023-03-01T03:27:56;139.40;;;33.73;;
37877;SDS011;23715;53.652;8.516;2023-03-01T03:32:57;111.90;;;27.73;;
37877;SDS011;23715;53.652;8.516;2023-03-01T03:38:04;131.75;;;30.23;;
37877;SDS011;23715;53.652;8.516;2023-03-01T03:43:07;79.92;;;26.27;;
37877;SDS011;23715;53.652;8.516;2023-03-01T03:48:12;52.43;;;25.87;;
37877;SDS011;23715;53.652;8.516;2023-03-01T03:53:14;88.65;;;25.80;;
37877;SDS011;23715;53.652;8.516;2023-03-01T03:58:15;51.80;;;23.40;;
37877;SDS011;23715;53.652;8.516;2023-03-01T04:03:17;52.00;;;24.12;;
37877;SDS011;23715;53.652;8.516;2023-03-01T04:08:20;31.02;;;22.62;;
37877;SDS011;23715;53.652;8.516;2023-03-01T04:13:22;31.85;;;23.67;;
37877;SDS011;23715;53.652;8.516;2023-03-01T04:18:23;26.87;;;21.97;;
37877;SDS011;23715;53.652;8.516;2023-03-01T04:23:26;29.05;;;22.55;;
37877;SDS011;23715;53.652;8.516;2023-03-01T04:28:27;29.82;;;23.65;;
37877;SDS011;23715;53.652;8.516;2023-03-01T04:33:35;24.05;;;19.70;;
37877;SDS011;23715;53.652;8.516;2023-03-01T04:38:36;20.47;;;18.27;;
37877;SDS011;23715;53.652;8.516;2023-03-01T04:43:37;21.17;;;18.62;;
37877;SDS011;23715;53.652;8.516;2023-03-01T04:48:38;20.52;;;16.97;;
37877;SDS011;23715;53.652;8.516;2023-03-01T04:53:39;18.40;;;16.50;;
37877;SDS011;23715;53.652;8.516;2023-03-01T04:58:41;20.23;;;16.73;;
37877;SDS011;23715;53.652;8.516;2023-03-01T05:03:48;19.55;;;17.00;;
37877;SDS011;23715;53.652;8.516;2023-03-01T05:08:43;20.88;;;17.02;;
37877;SDS011;23715;53.652;8.516;2023-03-01T05:13:44;23.55;;;18.40;;
37877;SDS011;23715;53.652;8.516;2023-03-01T05:23:44;34.43;;;21.87;;
37877;SDS011;23715;53.652;8.516;2023-03-01T05:28:46;49.83;;;27.32;;
37877;SDS011;23715;53.652;8.516;2023-03-01T05:33:48;48.30;;;29.70;;
37877;SDS011;23715;53.652;8.516;2023-03-01T05:38:48;70.73;;;32.33;;
37877;SDS011;23715;53.652;8.516;2023-03-01T05:48:48;90.28;;;38.88;;
37877;SDS011;23715;53.652;8.516;2023-03-01T05:53:50;120.47;;;47.50;;
37877;SDS011;23715;53.652;8.516;2023-03-01T05:58:50;150.97;;;55.38;;
37877;SDS011;23715;53.652;8.516;2023-03-01T06:03:50;110.52;;;59.83;;
37877;SDS011;23715;53.652;8.516;2023-03-01T06:08:51;143.85;;;60.60;;
37877;SDS011;23715;53.652;8.516;2023-03-01T06:13:52;154.00;;;59.08;;
37877;SDS011;23715;53.652;8.516;2023-03-01T06:18:52;133.27;;;55.70;;
37877;SDS011;23715;53.652;8.516;2023-03-01T06:23:52;92.60;;;59.00;;
37877;SDS011;23715;53.652;8.516;2023-03-01T06:28:53;133.10;;;60.50;;
37877;SDS011;23715;53.652;8.516;2023-03-01T06:33:53;106.32;;;63.42;;
37877;SDS011;23715;53.652;8.516;2023-03-01T06:38:55;111.15;;;59.40;;
37877;SDS011;23715;53.652;8.516;2023-03-01T06:43:55;111.05;;;58.83;;
37877;SDS011;23715;53.652;8.516;2023-03-01T06:48:57;96.00;;;57.43;;
37877;SDS011;23715;53.652;8.516;2023-03-01T06:53:57;83.55;;;59.73;;
37877;SDS011;23715;53.652;8.516;2023-03-01T06:58:58;74.80;;;51.40;;
37877;SDS011;23715;53.652;8.516;2023-03-01T07:03:58;81.42;;;53.08;;
37877;SDS011;23715;53.652;8.516;2023-03-01T07:09:00;92.70;;;50.63;;
37877;SDS011;23715;53.652;8.516;2023-03-01T07:14:06;97.85;;;54.48;;
37877;SDS011;23715;53.652;8.516;2023-03-01T07:19:08;89.83;;;53.50;;
37877;SDS011;23715;53.652;8.516;2023-03-01T07:29:10;76.80;;;50.28;;
37877;SDS011;23715;53.652;8.516;2023-03-01T07:34:14;64.05;;;49.05;;
37877;SDS011;23715;53.652;8.516;2023-03-01T07:39:16;54.23;;;48.90;;
37877;SDS011;23715;53.652;8.516;2023-03-01T07:44:18;52.67;;;47.48;;
37877;SDS011;23715;53.652;8.516;2023-03-01T07:49:22;54.50;;;48.05;;
37877;SDS011;23715;53.652;8.516;2023-03-01T07:54:24;54.15;;;48.90;;
37877;SDS011;23715;53.652;8.516;2023-03-01T07:59:24;53.63;;;48.63;;
37877;SDS011;23715;53.652;8.516;2023-03-01T08:04:32;54.20;;;48.40;;
37877;SDS011;23715;53.652;8.516;2023-03-01T08:09:36;58.25;;;48.83;;
37877;SDS011;23715;53.652;8.516;2023-03-01T08:14:40;55.17;;;47.73;;
37877;SDS011;23715;53.652;8.516;2023-03-01T08:19:47;94.15;;;55.95;;
37877;SDS011;23715;53.652;8.516;2023-03-01T08:24:44;87.47;;;50.43;;
37877;SDS011;23715;53.652;8.516;2023-03-01T08:29:47;54.85;;;49.40;;
37877;SDS011;23715;53.652;8.516;2023-03-01T08:34:49;88.50;;;50.60;;
37877;SDS011;23715;53.652;8.516;2023-03-01T08:39:52;55.63;;;50.23;;
37877;SDS011;23715;53.652;8.516;2023-03-01T08:44:53;59.30;;;53.30;;
37877;SDS011;23715;53.652;8.516;2023-03-01T08:49:56;54.60;;;48.68;;
37877;SDS011;23715;53.652;8.516;2023-03-01T08:54:59;60.33;;;51.77;;
37877;SDS011;23715;53.652;8.516;2023-03-01T09:00:01;59.27;;;53.42;;
37877;SDS011;23715;53.652;8.516;2023-03-01T09:05:12;60.52;;;54.85;;
37877;SDS011;23715;53.652;8.516;2023-03-01T09:10:17;62.20;;;56.50;;
37877;SDS011;23715;53.652;8.516;2023-03-01T09:15:13;64.07;;;57.55;;
37877;SDS011;23715;53.652;8.516;2023-03-01T09:25:14;57.70;;;51.98;;
37877;SDS011;23715;53.652;8.516;2023-03-01T09:30:15;61.83;;;55.78;;
37877;SDS011;23715;53.652;8.516;2023-03-01T09:35:17;59.80;;;54.40;;
37877;SDS011;23715;53.652;8.516;2023-03-01T09:40:22;58.10;;;53.13;;
37877;SDS011;23715;53.652;8.516;2023-03-01T09:45:28;60.30;;;55.03;;
37877;SDS011;23715;53.652;8.516;2023-03-01T09:50:35;59.25;;;53.83;;
37877;SDS011;23715;53.652;8.516;2023-03-01T10:00:49;57.53;;;52.15;;
37877;SDS011;23715;53.652;8.516;2023-03-01T10:05:55;59.10;;;52.65;;
37877;SDS011;23715;53.652;8.516;2023-03-01T10:11:02;62.10;;;56.37;;
37877;SDS011;23715;53.652;8.516;2023-03-01T10:21:18;62.65;;;56.70;;
37877;SDS011;23715;53.652;8.516;2023-03-01T10:26:27;62.43;;;56.70;;
37877;SDS011;23715;53.652;8.516;2023-03-01T10:31:38;62.93;;;57.23;;
37877;SDS011;23715;53.652;8.516;2023-03-01T10:36:41;65.28;;;59.20;;
37877;SDS011;23715;53.652;8.516;2023-03-01T10:41:58;63.15;;;57.00;;
37877;SDS011;23715;53.652;8.516;2023-03-01T10:47:00;65.67;;;59.35;;
37877;SDS011;23715;53.652;8.516;2023-03-01T10:52:25;63.87;;;58.00;;
37877;SDS011;23715;53.652;8.516;2023-03-01T10:57:33;62.27;;;56.68;;
37877;SDS011;23715;53.652;8.516;2023-03-01T11:02:31;61.20;;;55.90;;
37877;SDS011;23715;53.652;8.516;2023-03-01T11:07:46;62.17;;;56.58;;
37877;SDS011;23715;53.652;8.516;2023-03-01T11:12:38;63.13;;;56.75;;
37877;SDS011;23715;53.652;8.516;2023-03-01T11:17:38;63.98;;;58.15;;
37877;SDS011;23715;53.652;8.516;2023-03-01T11:22:46;60.65;;;55.15;;
37877;SDS011;23715;53.652;8.516;2023-03-01T11:27:51;63.55;;;57.80;;
37877;SDS011;23715;53.652;8.516;2023-03-01T11:38:38;61.18;;;55.58;;
37877;SDS011;23715;53.652;8.516;2023-03-01T11:43:51;58.55;;;53.33;;
37877;SDS011;23715;53.652;8.516;2023-03-01T11:54:15;58.48;;;52.93;;
37877;SDS011;23715;53.652;8.516;2023-03-01T11:59:51;58.28;;;53.02;;
37877;SDS011;23715;53.652;8.516;2023-03-01T12:15:21;62.27;;;56.63;;
37877;SDS011;23715;53.652;8.516;2023-03-01T12:20:51;60.43;;;55.20;;
37877;SDS011;23715;53.652;8.516;2023-03-01T12:31:16;56.58;;;51.60;;
37877;SDS011;23715;53.652;8.516;2023-03-01T12:36:24;57.80;;;52.65;;
37877;SDS011;23715;53.652;8.516;2023-03-01T12:41:36;58.25;;;53.15;;
37877;SDS011;23715;53.652;8.516;2023-03-01T12:51:52;57.40;;;52.15;;
37877;SDS011;23715;53.652;8.516;2023-03-01T12:57:08;55.40;;;50.63;;
37877;SDS011;23715;53.652;8.516;2023-03-01T13:02:16;54.83;;;50.12;;
37877;SDS011;23715;53.652;8.516;2023-03-01T13:28:53;54.65;;;50.17;;
37877;SDS011;23715;53.652;8.516;2023-03-01T13:33:57;57.27;;;51.98;;
37877;SDS011;23715;53.652;8.516;2023-03-01T13:39:02;54.77;;;50.15;;
37877;SDS011;23715;53.652;8.516;2023-03-01T13:49:28;52.35;;;48.05;;
37877;SDS011;23715;53.652;8.516;2023-03-01T13:54:34;53.35;;;48.95;;
37877;SDS011;23715;53.652;8.516;2023-03-01T13:59:36;50.52;;;46.35;;
37877;SDS011;23715;53.652;8.516;2023-03-01T14:04:46;50.52;;;46.18;;
37877;SDS011;23715;53.652;8.516;2023-03-01T14:10:11;54.83;;;50.35;;
37877;SDS011;23715;53.652;8.516;2023-03-01T14:19:59;54.25;;;49.93;;
37877;SDS011;23715;53.652;8.516;2023-03-01T14:25:05;52.05;;;47.80;;
37877;SDS011;23715;53.652;8.516;2023-03-01T14:30:24;56.83;;;52.08;;
37877;SDS011;23715;53.652;8.516;2023-03-01T14:35:31;52.65;;;48.45;;
37877;SDS011;23715;53.652;8.516;2023-03-01T14:40:36;54.98;;;49.93;;
37877;SDS011;23715;53.652;8.516;2023-03-01T14:45:44;53.30;;;49.30;;
37877;SDS011;23715;53.652;8.516;2023-03-01T15:01:03;51.40;;;47.38;;
37877;SDS011;23715;53.652;8.516;2023-03-01T15:11:23;52.40;;;48.33;;
37877;SDS011;23715;53.652;8.516;2023-03-01T15:16:29;50.35;;;46.37;;
37877;SDS011;23715;53.652;8.516;2023-03-01T15:21:33;50.38;;;46.23;;
37877;SDS011;23715;53.652;8.516;2023-03-01T15:26:42;51.85;;;47.65;;
37877;SDS011;23715;53.652;8.516;2023-03-01T15:37:05;46.58;;;43.00;;
37877;SDS011;23715;53.652;8.516;2023-03-01T15:42:10;46.92;;;43.28;;
37877;SDS011;23715;53.652;8.516;2023-03-01T15:47:29;50.10;;;46.20;;
37877;SDS011;23715;53.652;8.516;2023-03-01T15:52:35;47.20;;;43.70;;
37877;SDS011;23715;53.652;8.516;2023-03-01T15:57:41;47.60;;;43.50;;
37877;SDS011;23715;53.652;8.516;2023-03-01T16:02:43;51.05;;;47.05;;
37877;SDS011;23715;53.652;8.516;2023-03-01T16:07:44;51.00;;;47.00;;
37877;SDS011;23715;53.652;8.516;2023-03-01T16:12:46;47.60;;;44.00;;
37877;SDS011;23715;53.652;8.516;2023-03-01T16:17:50;47.58;;;44.13;;
37877;SDS011;23715;53.652;8.516;2023-03-01T16:23:04;46.98;;;43.28;;
37877;SDS011;23715;53.652;8.516;2023-03-01T16:28:07;48.35;;;44.77;;
37877;SDS011;23715;53.652;8.516;2023-03-01T16:33:08;48.92;;;45.25;;
37877;SDS011;23715;53.652;8.516;2023-03-01T16:38:10;49.20;;;45.40;;
37877;SDS011;23715;53.652;8.516;2023-03-01T16:43:12;48.17;;;44.67;;
37877;SDS011;23715;53.652;8.516;2023-03-01T16:48:19;49.03;;;45.25;;
37877;SDS011;23715;53.652;8.516;2023-03-01T16:53:23;48.38;;;44.48;;
37877;SDS011;23715;53.652;8.516;2023-03-01T16:58:31;50.08;;;46.18;;
37877;SDS011;23715;53.652;8.516;2023-03-01T17:03:29;46.98;;;43.52;;
37877;SDS011;23715;53.652;8.516;2023-03-01T17:08:39;49.05;;;45.55;;
37877;SDS011;23715;53.652;8.516;2023-03-01T17:13:45;50.00;;;46.20;;
37877;SDS011;23715;53.652;8.516;2023-03-01T17:18:46;49.40;;;45.88;;
37877;SDS011;23715;53.652;8.516;2023-03-01T17:23:54;49.38;;;45.95;;
37877;SDS011;23715;53.652;8.516;2023-03-01T17:29:01;49.83;;;46.37;;
37877;SDS011;23715;53.652;8.516;2023-03-01T17:34:12;46.05;;;42.85;;
37877;SDS011;23715;53.652;8.516;2023-03-01T17:39:15;47.43;;;44.23;;
37877;SDS011;23715;53.652;8.516;2023-03-01T17:44:21;45.85;;;42.65;;
37877;SDS011;23715;53.652;8.516;2023-03-01T17:49:24;46.10;;;42.78;;
37877;SDS011;23715;53.652;8.516;2023-03-01T17:54:29;48.20;;;44.85;;
37877;SDS011;23715;53.652;8.516;2023-03-01T17:59:55;45.38;;;42.27;;
37877;SDS011;23715;53.652;8.516;2023-03-01T18:04:43;41.90;;;39.00;;
37877;SDS011;23715;53.652;8.516;2023-03-01T18:09:46;44.33;;;41.42;;
37877;SDS011;23715;53.652;8.516;2023-03-01T18:14:47;45.08;;;41.90;;
37877;SDS011;23715;53.652;8.516;2023-03-01T18:19:52;41.60;;;39.00;;
37877;SDS011;23715;53.652;8.516;2023-03-01T18:25:02;40.20;;;37.60;;
37877;SDS011;23715;53.652;8.516;2023-03-01T18:30:00;41.98;;;39.25;;
37877;SDS011;23715;53.652;8.516;2023-03-01T18:35:04;42.38;;;39.35;;
37877;SDS011;23715;53.652;8.516;2023-03-01T18:40:09;42.53;;;39.58;;
37877;SDS011;23715;53.652;8.516;2023-03-01T18:45:11;42.93;;;39.92;;
37877;SDS011;23715;53.652;8.516;2023-03-01T18:50:22;46.20;;;42.98;;
37877;SDS011;23715;53.652;8.516;2023-03-01T18:55:28;42.85;;;39.80;;
37877;SDS011;23715;53.652;8.516;2023-03-01T19:00:27;45.75;;;41.73;;
37877;SDS011;23715;53.652;8.516;2023-03-01T19:05:30;51.02;;;46.37;;
37877;SDS011;23715;53.652;8.516;2023-03-01T19:10:35;55.33;;;50.28;;
37877;SDS011;23715;53.652;8.516;2023-03-01T19:15:36;56.53;;;51.02;;
37877;SDS011;23715;53.652;8.516;2023-03-01T19:20:39;72.72;;;60.78;;
37877;SDS011;23715;53.652;8.516;2023-03-01T19:25:41;82.22;;;66.57;;
37877;SDS011;23715;53.652;8.516;2023-03-01T19:30:44;92.82;;;72.75;;
37877;SDS011;23715;53.652;8.516;2023-03-01T19:35:46;98.07;;;73.70;;
37877;SDS011;23715;53.652;8.516;2023-03-01T19:40:54;106.60;;;77.60;;
37877;SDS011;23715;53.652;8.516;2023-03-01T19:45:53;112.83;;;81.70;;
37877;SDS011;23715;53.652;8.516;2023-03-01T19:50:54;116.57;;;82.78;;
37877;SDS011;23715;53.652;8.516;2023-03-01T19:55:58;110.28;;;79.70;;
37877;SDS011;23715;53.652;8.516;2023-03-01T20:01:00;102.00;;;74.35;;
37877;SDS011;23715;53.652;8.516;2023-03-01T20:06:11;94.22;;;68.35;;
37877;SDS011;23715;53.652;8.516;2023-03-01T20:11:22;94.30;;;68.50;;
37877;SDS011;23715;53.652;8.516;2023-03-01T20:16:23;81.65;;;64.40;;
37877;SDS011;23715;53.652;8.516;2023-03-01T20:21:21;69.42;;;59.50;;
37877;SDS011;23715;53.652;8.516;2023-03-01T20:26:23;62.17;;;55.78;;
37877;SDS011;23715;53.652;8.516;2023-03-01T20:31:27;53.33;;;48.28;;
37877;SDS011;23715;53.652;8.516;2023-03-01T20:41:38;50.40;;;45.83;;
37877;SDS011;23715;53.652;8.516;2023-03-01T20:46:47;54.35;;;49.48;;
37877;SDS011;23715;53.652;8.516;2023-03-01T20:51:50;51.48;;;46.80;;
37877;SDS011;23715;53.652;8.516;2023-03-01T20:56:57;53.83;;;48.83;;
37877;SDS011;23715;53.652;8.516;2023-03-01T21:01:58;51.37;;;46.83;;
37877;SDS011;23715;53.652;8.516;2023-03-01T21:07:00;52.60;;;47.98;;
37877;SDS011;23715;53.652;8.516;2023-03-01T21:12:01;49.48;;;45.28;;
37877;SDS011;23715;53.652;8.516;2023-03-01T21:17:05;51.98;;;47.58;;
37877;SDS011;23715;53.652;8.516;2023-03-01T21:22:14;53.25;;;48.63;;
37877;SDS011;23715;53.652;8.516;2023-03-01T21:27:15;53.48;;;48.78;;
37877;SDS011;23715;53.652;8.516;2023-03-01T21:32:16;56.08;;;50.95;;
37877;SDS011;23715;53.652;8.516;2023-03-01T21:37:21;54.60;;;49.50;;
37877;SDS011;23715;53.652;8.516;2023-03-01T21:42:25;54.58;;;49.58;;
37877;SDS011;23715;53.652;8.516;2023-03-01T21:47:30;54.30;;;49.48;;
37877;SDS011;23715;53.652;8.516;2023-03-01T21:52:35;57.23;;;51.85;;
37877;SDS011;23715;53.652;8.516;2023-03-01T21:57:37;53.00;;;47.98;;
37877;SDS011;23715;53.652;8.516;2023-03-01T22:02:43;49.80;;;45.27;;
37877;SDS011;23715;53.652;8.516;2023-03-01T22:07:41;54.13;;;49.05;;
37877;SDS011;23715;53.652;8.516;2023-03-01T22:12:46;55.12;;;50.30;;
37877;SDS011;23715;53.652;8.516;2023-03-01T22:17:51;52.93;;;48.15;;
37877;SDS011;23715;53.652;8.516;2023-03-01T22:22:57;57.83;;;52.55;;
37877;SDS011;23715;53.652;8.516;2023-03-01T22:27:55;58.42;;;52.93;;
37877;SDS011;23715;53.652;8.516;2023-03-01T22:32:58;60.10;;;53.92;;
37877;SDS011;23715;53.652;8.516;2023-03-01T22:38:02;60.28;;;54.15;;
37877;SDS011;23715;53.652;8.516;2023-03-01T22:43:05;62.50;;;56.05;;
37877;SDS011;23715;53.652;8.516;2023-03-01T22:48:06;61.42;;;55.40;;
37877;SDS011;23715;53.652;8.516;2023-03-01T22:53:06;60.70;;;54.23;;
37877;SDS011;23715;53.652;8.516;2023-03-01T22:58:08;64.72;;;58.13;;
37877;SDS011;23715;53.652;8.516;2023-03-01T23:03:08;64.82;;;58.25;;
37877;SDS011;23715;53.652;8.516;2023-03-01T23:08:16;61.30;;;55.20;;
37877;SDS011;23715;53.652;8.516;2023-03-01T23:13:14;62.17;;;55.78;;
37877;SDS011;23715;53.652;8.516;2023-03-01T23:18:15;66.82;;;59.53;;
37877;SDS011;23715;53.652;8.516;2023-03-01T23:23:15;65.78;;;58.87;;
37877;SDS011;23715;53.652;8.516;2023-03-01T23:28:15;61.98;;;55.35;;
37877;SDS011;23715;53.652;8.516;2023-03-01T23:38:15;61.23;;;54.57;;
37877;SDS011;23715;53.652;8.516;2023-03-01T23:43:15;62.62;;;55.70;;
37877;SDS011;23715;53.652;8.516;2023-03-01T23:48:16;68.67;;;56.28;;
37877;SDS011;23715;53.652;8.516;2023-03-01T23:53:18;57.95;;;52.08;;
37877;SDS011;23715;53.652;8.516;2023-03-01T23:58:19;55.12;;;49.33;;
